Nearby METAR Reports

 

KSEE - San Diego/Santee, California, USA
Distance from station: E 4mi, 6km
Updated: 02/17/2018 10:35pm
Clear
Clear
 Wind from calm
Wind: Calm
Temperature: 52°F , 11°C
Dew Point: 30°F , -1°C
Humidity: 44%
Barometer: 30.05 inHg , 1017.6 hPa
Clouds: Clear
Visibility: 10 miles , 16 km
2018/02/18 06:35 KSEE 180635Z AUTO 00000KT 10SM CLR 11/M01 A3005 RMK AO2
KMYF - San Diego/Mntgmy, California, USA
Distance from station: W 6mi, 10km
Updated: 02/17/2018 9:53pm
Clear
Clear
 Wind from NE
Wind: NE 3 mph , 6 km/h
Temperature: 55°F , 13°C
Dew Point: 34°F , 1°C
Humidity: 44%
Barometer: 30.05 inHg , 1017.6 hPa
Clouds: Clear
Visibility: 10 miles , 16 km
2018/02/18 05:53 KMYF 180553Z AUTO 04003KT 10SM CLR 13/01 A3005 RMK AO2 SLP174 T01280011 10222 20128 50000
 
KNKX - Miramar Nas/San, California, USA
Distance from station: WNW 7mi, 11km
Updated: 02/17/2018 9:55pm
Few Clouds
Few Clouds
 Wind from ENE
Wind: ENE 8 mph , 13 km/h
Temperature: 54°F , 12°C
Dew Point: 32°F , 0°C
Humidity: 44%
Barometer: 30.05 inHg , 1017.6 hPa
Clouds: Few Clouds
Visibility: 10 miles , 16 km
Cloud details: Few Clouds 25000 ft
2018/02/18 05:55 KNKX 180555Z 07007KT 10SM FEW250 12/00 A3005 RMK AO2 SLP169 T01170000 10233 20111 58000 $
KSAN - San Diego, California, USA
Distance from station: WSW 11mi, 17km
Updated: 02/17/2018 10:51pm
Clear
Clear
 Wind from calm
Wind: Calm
Temperature: 61°F , 16°C
Dew Point: 36°F , 2°C
Humidity: 39%
Barometer: 30.06 inHg , 1017.9 hPa
Clouds: Clear
Visibility: 10 miles , 16 km
2018/02/18 06:51 KSAN 180651Z 00000KT 10SM CLR 16/02 A3006 RMK AO2 SLP178 T01560022
 
KNZY - North Island Nas, California, USA
Distance from station: SW 13mi, 22km
Updated: 02/17/2018 9:52pm
Partly cloudy
Partly cloudy
 Wind from WNW
Wind: WNW 3 mph , 6 km/h
Temperature: 57°F , 14°C
Dew Point: 48°F , 9°C
Humidity: 72%
Barometer: 30.04 inHg , 1017.3 hPa
Clouds: Partly cloudy
Visibility: 10 miles , 16 km
Cloud details: Partly cloudy 25000 ft
2018/02/18 05:52 KNZY 180552Z 30003KT 10SM SCT250 14/09 A3004 RMK AO2 SLP173 T01440089 10206 20144 50001 $
KRNM - Ramona, California, USA
Distance from station: NNE 16mi, 26km
Updated: 02/17/2018 9:53pm
Clear
Clear
 Wind from calm
Wind: Calm
Temperature: 43°F , 6°C
Dew Point: 28°F , -2°C
Humidity: 57%
Barometer: 30.06 inHg , 1017.9 hPa
Clouds: Clear
Visibility: 10 miles , 16 km
2018/02/18 05:53 KRNM 180553Z AUTO 00000KT 10SM CLR 06/M02 A3006 RMK AO2 SLP174 T00561017 10217 20050 50001
 
KSDM - San Diego/Brown, California, USA
Distance from station: S 16mi, 26km
Updated: 02/17/2018 9:53pm
Clear
Clear
 Wind from ENE
Wind: ENE 3 mph , 6 km/h
Temperature: 55°F , 13°C
Dew Point: 39°F , 4°C
Humidity: 55%
Barometer: 30.06 inHg , 1017.9 hPa
Clouds: Clear
Visibility: 10 miles , 16 km
2018/02/18 05:53 KSDM 180553Z AUTO 07003KT 10SM CLR 13/04 A3006 RMK AO2 SLP175 T01330044 10222 20117 51003
KNRS - Imperial Beach, California, USA
Distance from station: SSW 18mi, 29km
Updated: 02/17/2018 9:56pm
Clear
Clear
 Wind from ENE
Wind: ENE 3 mph , 6 km/h
Temperature: 54°F , 12°C
Dew Point: 43°F , 6°C
Humidity: 67%
Barometer: 30.06 inHg , 1017.9 hPa
Clouds: Clear
Visibility: 10 miles , 16 km
2018/02/18 05:56 KNRS 180556Z AUTO 07003KT 10SM CLR 12/06 A3006 RMK AO2 SLP178 T01170061 10211 20100 50001 $
 
MMTJ - Tijuana Intl Arp, Mexico
Distance from station: S 20mi, 32km
Updated: 02/17/2018 9:49pm
Few Clouds
Few Clouds
 Wind from calm
Wind: Calm
Temperature: 55°F , 13°C
Dew Point: 45°F , 7°C
Humidity: 67%
Barometer: 30.07 inHg , 1018.3 hPa
Clouds: Few Clouds
Visibility: 8 miles , 13 km
Cloud details: Few Clouds 20000 ft
2018/02/18 05:49 MMTJ 180549Z 00000KT 8SM FEW200 13/07 A3007 RMK SLP187 54001 974 8/001
KCRQ - Carlsbad, California, USA
Distance from station: NW 26mi, 43km
Updated: 02/17/2018 9:53pm
Clear
Clear
 Wind from calm
Wind: Calm
Temperature: 55°F , 13°C
Dew Point: 45°F , 7°C
Humidity: 67%
Barometer: 30.04 inHg , 1017.3 hPa
Clouds: Clear
Visibility: 10 miles , 16 km
2018/02/18 05:53 KCRQ 180553Z AUTO 00000KT 10SM CLR 13/07 A3004 RMK AO2 SLP170 T01280067 10200 20128 58001
 
KOKB - Oceanside, California, USA
Distance from station: NW 33mi, 54km
Updated: 02/17/2018 10:52pm
Clear
Clear
 Wind from calm
Wind: Calm
Temperature: 46°F , 8°C
Dew Point: 45°F , 7°C
Humidity: 93%
Barometer: 30.04 inHg , 1017.3 hPa
Clouds: Clear
Visibility: 9 miles , 14 km
2018/02/18 06:52 KOKB 180652Z AUTO 00000KT 9SM CLR 08/07 A3004 RMK AO2 SLP172 T00830067
KCZZ - Campo, California, USA
Distance from station: ESE 35mi, 56km
Updated: 02/17/2018 10:52pm

 Wind from ENE
Wind: ENE 6 mph , 9 km/h
Temperature: 37°F , 3°C
Wind Chill: 32°F , 0°C
Dew Point: 21°F , -6°C
Humidity: 52%
Barometer: 30.04 inHg , 1017.3 hPa
2018/02/18 06:52 KCZZ 180652Z AUTO 06005KT 03/M06 A3004 RMK AO1 SLP156 T00331061
 
KNFG - Camp Pendleton, California, USA
Distance from station: NNW 37mi, 59km
Updated: 02/17/2018 7:55pm
NOT Current
Clear
Clear
 Wind from NNE
Wind: NNE 5 mph , 7 km/h
Temperature: 54°F , 12°C
Dew Point: 39°F , 4°C
Humidity: 58%
Barometer: 30.04 inHg , 1017.3 hPa
Clouds: Clear
Visibility: 10 miles , 16 km
2018/02/18 03:55 KNFG 180355Z AUTO 02004KT 10SM CLR 12/04 A3004 RMK AO2 SLP173 T01170039
KRIV - Riverside/March, California, USA
Distance from station: N 74mi, 119km
Updated: 02/17/2018 9:58pm
Clear
Clear
 Wind from calm
Wind: Calm
Temperature: 45°F , 7°C
Dew Point: 30°F , -1°C
Humidity: 57%
Barometer: 30.05 inHg , 1017.6 hPa
Clouds: Clear
Visibility: 10 miles , 16 km
2018/02/18 05:58 KRIV 180558Z AUTO 00000KT 10SM CLR 07/M01 A3005 RMK AO2 SLP174 T00661013 10224 20064 50004
 
KTRM - Thermal/Palm Spg, California, USA
Distance from station: NE 75mi, 121km
Updated: 02/17/2018 10:52pm
Clear
Clear
 Wind from N
Wind: N 7 mph , 11 km/h
Temperature: 48°F , 9°C
Wind Chill: 45°F , 7°C
Dew Point: 28°F , -2°C
Humidity: 46%
Barometer: 29.99 inHg , 1015.6 hPa
Clouds: Clear
Visibility: 10 miles , 16 km
2018/02/18 06:52 KTRM 180652Z AUTO 36006KT 10SM CLR 09/M02 A2999 RMK AO2 SLP155 T00941022
KPSP - Palm Springs, California, USA
Distance from station: NNE 76mi, 122km
Updated: 02/17/2018 9:53pm
Clear
Clear
 Wind from NNW
Wind: NNW 7 mph , 11 km/h
Temperature: 57°F , 14°C
Dew Point: 21°F , -6°C
Humidity: 25%
Barometer: 30.04 inHg , 1017.3 hPa
Clouds: Clear
Visibility: 10 miles , 16 km
2018/02/18 05:53 KPSP 180553Z 34006KT 10SM CLR 14/M06 A3004 RMK AO2 SLP171 T01391061 10233 20139 56001
 
KSNA - Costa Mesa, California, USA
Distance from station: NW 76mi, 123km
Updated: 02/17/2018 9:53pm
Mostly cloudy
Mostly cloudy
 Wind from S
Wind: S 3 mph , 6 km/h
Temperature: 57°F , 14°C
Dew Point: 43°F , 6°C
Humidity: 59%
Barometer: 30.04 inHg , 1017.3 hPa
Clouds: Mostly cloudy
Visibility: 10 miles , 16 km
Cloud details: Mostly cloudy 25000 ft
2018/02/18 05:53 KSNA 180553Z 19003KT 10SM BKN250 14/06 A3004 RMK AO2 SLP172 T01440061 10206 20144 55000
KNJK - El Centro Naf, California, USA
Distance from station: E 79mi, 127km
Updated: 02/17/2018 9:56pm
Clear
Clear
 Wind from calm
Wind: Calm
Temperature: 54°F , 12°C
Dew Point: 27°F , -3°C
Humidity: 35%
Barometer: 30.02 inHg , 1016.6 hPa
Clouds: Clear
Visibility: 10 miles , 16 km
2018/02/18 05:56 KNJK 180556Z AUTO 00000KT 10SM CLR 12/M03 A3002 RMK AO2 SLP182 T01171028 10239 20117 56005
 
KAJO - Corona Muni, California, USA
Distance from station: NNW 82mi, 132km
Updated: 02/17/2018 9:56pm
Clear
Clear
 Wind from E
Wind: E 3 mph , 6 km/h
Temperature: 55°F , 13°C
Dew Point: 36°F , 2°C
Humidity: 47%
Barometer: 30.05 inHg , 1017.6 hPa
Clouds: Clear
Visibility: 10 miles , 16 km
2018/02/18 05:56 KAJO 180556Z AUTO 10003KT 10SM CLR 13/02 A3005 RMK AO2 SLP186 T01330017 10233 20133 53005